createdAt,value
2023-05-12T00:00:47.656Z,36.72
2023-05-12T00:01:47.723Z,36.74
2023-05-12T00:02:47.841Z,36.74
2023-05-12T00:03:48.067Z,36.71
2023-05-12T00:04:48.003Z,36.72
2023-05-12T00:05:48.070Z,36.74
2023-05-12T00:06:48.172Z,36.71
2023-05-12T00:07:48.239Z,36.72
2023-05-12T00:08:48.330Z,36.74
2023-05-12T00:09:48.400Z,36.72
2023-05-12T00:10:48.479Z,36.74
2023-05-12T00:11:48.602Z,36.74
2023-05-12T00:12:48.663Z,36.75
2023-05-12T00:13:48.825Z,36.75
2023-05-12T00:14:48.840Z,36.76
2023-05-12T00:15:48.974Z,36.76
2023-05-12T00:16:49.097Z,36.77
2023-05-12T00:17:49.110Z,36.77
2023-05-12T00:18:49.183Z,36.79
2023-05-12T00:19:49.243Z,36.79
2023-05-12T00:20:49.322Z,36.77
2023-05-12T00:21:49.391Z,36.79
2023-05-12T00:22:49.462Z,36.80
2023-05-12T00:23:49.541Z,36.81
2023-05-12T00:24:49.617Z,36.78
2023-05-12T00:25:49.688Z,36.80
2023-05-12T00:26:49.758Z,36.80
2023-05-12T00:27:49.870Z,36.82
2023-05-12T00:28:49.923Z,36.80
2023-05-12T00:29:50.029Z,36.81
2023-05-12T00:30:50.115Z,36.82
2023-05-12T00:31:50.273Z,36.85
2023-05-12T00:32:50.307Z,36.82
2023-05-12T00:33:50.343Z,36.85
2023-05-12T00:34:50.420Z,36.84
2023-05-12T00:35:50.489Z,36.83
2023-05-12T00:36:50.572Z,36.86
2023-05-12T00:37:50.687Z,36.88
2023-05-12T00:38:50.730Z,36.83
2023-05-12T00:39:50.809Z,36.81
2023-05-12T00:40:50.881Z,36.78
2023-05-12T00:41:50.961Z,36.83
2023-05-12T00:42:51.029Z,36.82
2023-05-12T00:43:51.108Z,36.84
2023-05-12T00:44:51.196Z,36.86
2023-05-12T00:45:51.300Z,36.87
2023-05-12T00:46:51.352Z,36.89
2023-05-12T00:47:51.446Z,36.91
2023-05-12T00:48:51.508Z,36.88
2023-05-12T00:49:51.581Z,36.90
2023-05-12T00:50:51.675Z,36.90
2023-05-12T00:51:51.754Z,36.91
2023-05-12T00:52:51.822Z,36.91
2023-05-12T00:53:51.883Z,36.90
2023-05-12T00:54:51.965Z,36.91
2023-05-12T00:55:52.060Z,36.92
2023-05-12T00:56:52.126Z,36.91
2023-05-12T00:57:52.202Z,36.91
2023-05-12T00:58:52.283Z,36.91
2023-05-12T00:59:52.375Z,36.91
2023-05-12T01:00:52.471Z,36.92
2023-05-12T01:01:52.522Z,36.93
2023-05-12T01:02:52.753Z,36.93
2023-05-12T01:03:52.679Z,36.95
2023-05-12T01:04:52.750Z,36.96
2023-05-12T01:05:52.841Z,36.95
2023-05-12T01:06:52.910Z,36.96
2023-05-12T01:07:52.979Z,36.97
2023-05-12T01:08:53.053Z,36.99
2023-05-12T01:09:53.137Z,36.97
2023-05-12T01:10:53.213Z,36.96
2023-05-12T01:11:53.312Z,36.99
2023-05-12T01:12:53.370Z,37.00
2023-05-12T01:13:53.445Z,37.02
2023-05-12T01:14:53.547Z,37.03
2023-05-12T01:15:53.599Z,37.00
2023-05-12T01:16:53.729Z,37.01
2023-05-12T01:17:53.826Z,37.02
2023-05-12T01:18:53.853Z,37.02
2023-05-12T01:19:53.920Z,37.03
2023-05-12T01:20:53.995Z,37.02
2023-05-12T01:21:54.084Z,37.02
2023-05-12T01:22:54.165Z,37.01
2023-05-12T01:23:54.235Z,37.03
2023-05-12T01:24:54.327Z,37.02
2023-05-12T01:25:54.397Z,37.01
2023-05-12T01:26:54.471Z,37.00
2023-05-12T01:27:54.560Z,37.02
2023-05-12T01:28:54.632Z,37.02
2023-05-12T01:29:54.746Z,37.02
2023-05-12T01:30:54.798Z,37.05
2023-05-12T01:31:54.880Z,37.03
2023-05-12T01:32:54.963Z,37.04
2023-05-12T01:33:55.025Z,37.06
2023-05-12T01:34:55.087Z,37.07
2023-05-12T01:35:55.180Z,37.07
2023-05-12T01:36:55.252Z,37.09
2023-05-12T01:37:55.335Z,37.07
2023-05-12T01:38:55.402Z,37.06
2023-05-12T01:39:55.481Z,37.06
2023-05-12T01:40:55.558Z,37.06
2023-05-12T01:41:55.625Z,37.08
2023-05-12T01:42:55.705Z,37.08
2023-05-12T01:43:55.789Z,37.10
2023-05-12T01:44:55.874Z,37.08
2023-05-12T01:45:55.952Z,37.10
2023-05-12T01:46:56.177Z,37.10
2023-05-12T01:47:56.149Z,37.09
2023-05-12T01:48:56.192Z,37.08
2023-05-12T01:49:56.279Z,37.08
2023-05-12T01:50:56.349Z,37.09
2023-05-12T01:51:56.443Z,37.09
2023-05-12T01:52:56.508Z,37.08
2023-05-12T01:53:56.570Z,37.09
2023-05-12T01:54:56.643Z,37.09
2023-05-12T01:55:56.740Z,37.09
2023-05-12T01:56:56.827Z,37.09
2023-05-12T01:57:56.891Z,37.09
2023-05-12T01:58:57.015Z,37.09
2023-05-12T01:59:57.058Z,37.11
2023-05-12T02:00:57.136Z,37.12
2023-05-12T02:01:57.250Z,37.10
2023-05-12T02:02:57.365Z,37.12
2023-05-12T02:03:57.503Z,37.14
2023-05-12T02:04:57.466Z,37.13
2023-05-12T02:05:57.543Z,37.13
2023-05-12T02:06:57.634Z,37.16
2023-05-12T02:07:57.743Z,37.16
2023-05-12T02:08:57.813Z,37.13
2023-05-12T02:09:57.885Z,37.14
2023-05-12T02:10:57.929Z,37.18
2023-05-12T02:11:58.008Z,37.18
2023-05-12T02:12:58.075Z,37.17
2023-05-12T02:13:58.202Z,37.17
2023-05-12T02:14:58.247Z,37.18
2023-05-12T02:15:58.365Z,37.17
2023-05-12T02:16:58.432Z,37.15
2023-05-12T02:17:58.588Z,37.08
2023-05-12T02:18:58.656Z,37.09
2023-05-12T02:19:58.669Z,37.08
2023-05-12T02:20:58.730Z,37.06
2023-05-12T02:21:58.827Z,37.06
2023-05-12T02:22:58.931Z,37.04
2023-05-12T02:23:59.014Z,37.04
2023-05-12T02:24:59.090Z,37.02
2023-05-12T02:25:59.170Z,36.97
2023-05-12T02:26:59.231Z,36.95
2023-05-12T02:27:59.319Z,36.95
2023-05-12T02:28:59.378Z,36.89
2023-05-12T02:29:59.486Z,36.87
2023-05-12T02:30:59.521Z,36.86
2023-05-12T02:31:59.599Z,36.86
2023-05-12T02:32:59.682Z,36.86
2023-05-12T02:33:59.731Z,36.90
2023-05-12T02:34:59.815Z,36.88
2023-05-12T02:35:59.907Z,36.89
2023-05-12T02:36:59.964Z,36.85
2023-05-12T02:38:00.050Z,36.87
2023-05-12T02:39:00.146Z,36.89
2023-05-12T02:40:00.224Z,36.91
2023-05-12T02:41:00.278Z,36.90
2023-05-12T02:42:00.334Z,36.91
2023-05-12T02:43:00.421Z,36.92
2023-05-12T02:44:00.490Z,36.91
2023-05-12T02:45:00.576Z,36.92
2023-05-12T02:46:00.758Z,36.94
2023-05-12T02:47:00.722Z,36.93
2023-05-12T02:48:00.835Z,36.98
2023-05-12T02:49:00.914Z,36.97
2023-05-12T02:50:00.988Z,36.95
2023-05-12T02:51:01.054Z,36.97
2023-05-12T02:52:01.131Z,36.97
2023-05-12T02:53:01.202Z,36.96
2023-05-12T02:54:01.284Z,36.99
2023-05-12T02:55:01.361Z,37.00
2023-05-12T02:56:01.443Z,37.00
2023-05-12T02:57:01.514Z,37.00
2023-05-12T02:58:01.590Z,37.02
2023-05-12T02:59:01.680Z,37.02
2023-05-12T03:00:01.763Z,37.04
2023-05-12T03:01:09.829Z,37.03
2023-05-12T03:02:02.059Z,37.05
2023-05-12T03:03:02.162Z,37.05
2023-05-12T03:04:02.096Z,37.07
2023-05-12T03:05:02.182Z,37.11
2023-05-12T03:06:02.268Z,37.12
2023-05-12T03:07:02.343Z,37.08
2023-05-12T03:08:02.436Z,37.11
2023-05-12T03:09:02.502Z,37.13
2023-05-12T03:10:02.588Z,37.12
2023-05-12T03:11:02.653Z,37.10
2023-05-12T03:12:02.772Z,37.13
2023-05-12T03:13:02.820Z,37.15
2023-05-12T03:14:02.908Z,37.13
2023-05-12T03:15:02.968Z,37.13
2023-05-12T03:16:03.060Z,37.14
2023-05-12T03:17:03.202Z,37.15
2023-05-12T03:18:03.271Z,37.17
2023-05-12T03:19:03.354Z,37.19
2023-05-12T03:20:03.403Z,37.17
2023-05-12T03:21:03.479Z,37.17
2023-05-12T03:22:03.568Z,37.17
2023-05-12T03:23:03.639Z,37.18
2023-05-12T03:24:03.722Z,37.18
2023-05-12T03:25:03.821Z,37.18
2023-05-12T03:26:03.897Z,37.19
2023-05-12T03:27:03.975Z,37.19
2023-05-12T03:28:04.056Z,37.20
2023-05-12T03:29:04.148Z,37.22
2023-05-12T03:30:04.227Z,37.22
2023-05-12T03:31:04.323Z,37.20
2023-05-12T03:32:04.401Z,37.20
2023-05-12T03:33:04.547Z,37.20
2023-05-12T03:34:04.547Z,37.18
2023-05-12T03:35:04.625Z,37.18
2023-05-12T03:36:04.706Z,37.18
2023-05-12T03:37:04.779Z,37.17
2023-05-12T03:38:04.871Z,37.18
2023-05-12T03:39:04.956Z,37.17
2023-05-12T03:40:05.044Z,37.18
2023-05-12T03:41:05.115Z,37.17
2023-05-12T03:42:05.180Z,37.18
2023-05-12T03:43:05.271Z,37.16
2023-05-12T03:44:05.335Z,37.16
2023-05-12T03:45:05.414Z,37.16
2023-05-12T03:46:05.584Z,37.16
2023-05-12T03:47:05.712Z,37.17
2023-05-12T03:48:05.671Z,37.17
2023-05-12T03:49:05.737Z,37.17
2023-05-12T03:50:05.804Z,37.18
2023-05-12T03:51:05.877Z,37.17
2023-05-12T03:52:05.948Z,37.17
2023-05-12T03:53:06.050Z,37.17
2023-05-12T03:54:06.142Z,37.17
2023-05-12T03:55:06.176Z,37.17
2023-05-12T03:56:06.249Z,37.20
2023-05-12T03:57:06.324Z,37.18
2023-05-12T03:58:06.398Z,37.16
2023-05-12T03:59:06.482Z,37.15
2023-05-12T04:00:06.590Z,37.17
2023-05-12T04:01:06.646Z,37.15
2023-05-12T04:02:06.732Z,37.14
2023-05-12T04:03:06.811Z,37.14
2023-05-12T04:04:06.916Z,37.13
2023-05-12T04:05:06.945Z,37.13
2023-05-12T04:06:07.022Z,37.13
2023-05-12T04:07:07.117Z,37.13
2023-05-12T04:08:07.202Z,37.13
2023-05-12T04:09:07.248Z,37.14
2023-05-12T04:10:07.326Z,37.12
2023-05-12T04:11:07.403Z,37.13
2023-05-12T04:12:07.481Z,37.11
2023-05-12T04:13:07.553Z,36.99
2023-05-12T04:14:07.652Z,36.90
2023-05-12T04:15:07.757Z,36.86
2023-05-12T04:16:07.836Z,36.80
2023-05-12T04:17:07.882Z,36.74
2023-05-12T04:18:07.947Z,36.69
2023-05-12T04:19:08.165Z,36.63
2023-05-12T04:20:08.144Z,36.59
2023-05-12T04:21:08.209Z,36.57
2023-05-12T04:22:08.277Z,36.54
2023-05-12T04:23:08.349Z,36.55
2023-05-12T04:24:08.429Z,36.52
2023-05-12T04:25:08.511Z,36.53
2023-05-12T04:26:08.570Z,36.51
2023-05-12T04:27:08.632Z,36.50
2023-05-12T04:28:10.071Z,36.48
2023-05-12T04:29:08.790Z,36.50
2023-05-12T04:30:08.876Z,36.51
2023-05-12T04:31:08.934Z,36.50
2023-05-12T04:32:09.310Z,36.47
2023-05-12T04:33:09.172Z,36.46
2023-05-12T04:34:09.169Z,36.44
2023-05-12T04:35:09.251Z,36.45
2023-05-12T04:36:09.373Z,36.46
2023-05-12T04:37:09.407Z,36.44
2023-05-12T04:39:09.582Z,36.46
2023-05-12T04:40:09.685Z,36.45
2023-05-12T04:41:09.774Z,36.44
2023-05-12T04:42:09.843Z,36.44
2023-05-12T04:43:59.888Z,36.41
2023-05-12T04:44:09.986Z,36.45
2023-05-12T04:45:10.059Z,36.42
2023-05-12T04:46:10.167Z,36.41
2023-05-12T04:47:10.212Z,36.40
2023-05-12T04:48:10.292Z,36.40
2023-05-12T04:49:10.359Z,36.40
2023-05-12T04:50:10.428Z,36.39
2023-05-12T04:51:10.510Z,36.37
2023-05-12T04:52:10.581Z,36.39
2023-05-12T04:53:11.458Z,36.36
2023-05-12T04:54:10.721Z,36.38
2023-05-12T04:55:10.818Z,36.36
2023-05-12T04:56:10.883Z,36.36
2023-05-12T04:57:10.972Z,36.35
2023-05-12T04:58:11.037Z,36.34
2023-05-12T04:59:11.109Z,36.34
2023-05-12T05:00:11.198Z,36.34
2023-05-12T05:01:11.317Z,36.35
2023-05-12T05:02:11.393Z,36.33
2023-05-12T05:03:11.576Z,36.31
2023-05-12T05:04:11.501Z,36.31
2023-05-12T05:05:11.588Z,36.31
2023-05-12T05:06:11.668Z,36.32
2023-05-12T05:07:11.743Z,36.30
2023-05-12T05:08:11.815Z,36.28
2023-05-12T05:09:11.885Z,36.27
2023-05-12T05:10:11.940Z,36.25
2023-05-12T05:11:12.025Z,36.25
2023-05-12T05:12:12.107Z,36.28
2023-05-12T05:13:12.188Z,36.24
2023-05-12T05:14:12.268Z,36.25
2023-05-12T05:15:12.315Z,36.26
2023-05-12T05:16:12.453Z,36.24
2023-05-12T05:17:12.488Z,36.24
2023-05-12T05:18:12.593Z,36.23
2023-05-12T05:19:21.707Z,36.23
2023-05-12T05:20:15.265Z,36.26
2023-05-12T05:21:12.824Z,36.26
2023-05-12T05:22:12.873Z,36.24
2023-05-12T05:23:12.982Z,36.21
2023-05-12T05:24:13.008Z,36.21
2023-05-12T05:25:13.106Z,36.19
2023-05-12T05:26:13.185Z,36.19
2023-05-12T05:27:13.254Z,36.18
2023-05-12T05:28:13.378Z,36.18
2023-05-12T05:29:13.411Z,36.17
2023-05-12T05:30:13.509Z,36.16
2023-05-12T05:31:13.652Z,36.16
2023-05-12T05:32:13.703Z,36.14
2023-05-12T05:33:13.795Z,36.18
2023-05-12T05:34:13.951Z,36.13
2023-05-12T05:35:13.949Z,36.12
2023-05-12T05:36:14.038Z,36.11
2023-05-12T05:37:14.130Z,36.07
2023-05-12T05:38:14.204Z,36.07
2023-05-12T05:39:14.290Z,36.05
2023-05-12T05:40:14.460Z,36.04
2023-05-12T05:41:14.439Z,36.03
2023-05-12T05:42:14.541Z,36.06
2023-05-12T05:43:14.589Z,36.05
2023-05-12T05:44:14.679Z,36.04
2023-05-12T05:45:14.730Z,36.03
2023-05-12T05:46:14.856Z,36.02
2023-05-12T05:47:14.936Z,36.02
2023-05-12T05:48:14.984Z,35.99
2023-05-12T05:49:15.093Z,35.98
2023-05-12T05:50:15.116Z,35.98
2023-05-12T05:51:15.207Z,35.97
2023-05-12T05:52:15.279Z,35.96
2023-05-12T05:53:15.567Z,35.93
2023-05-12T05:54:15.435Z,35.93
2023-05-12T05:55:15.523Z,35.92
2023-05-12T05:56:15.602Z,35.93
2023-05-12T05:57:15.667Z,35.92
2023-05-12T05:58:15.731Z,35.92
2023-05-12T05:59:15.803Z,35.93
2023-05-12T06:00:15.895Z,35.90
2023-05-12T06:01:15.969Z,35.89
2023-05-12T06:02:16.056Z,35.90
2023-05-12T06:03:16.178Z,35.87
2023-05-12T06:04:16.255Z,35.89
2023-05-12T06:05:16.315Z,35.89
2023-05-12T06:06:16.371Z,35.88
2023-05-12T06:07:16.466Z,35.91
2023-05-12T06:08:16.539Z,35.91
2023-05-12T06:09:16.613Z,35.91
2023-05-12T06:10:16.742Z,35.89
2023-05-12T06:11:17.945Z,35.90
2023-05-12T06:12:16.856Z,35.90
2023-05-12T06:13:16.926Z,35.90
2023-05-12T06:14:17.010Z,35.91
2023-05-12T06:15:17.123Z,35.88
2023-05-12T06:16:17.206Z,35.89
2023-05-12T06:17:17.248Z,35.89
2023-05-12T06:18:17.307Z,35.88
2023-05-12T06:19:17.374Z,35.90
2023-05-12T06:20:17.473Z,35.87
2023-05-12T06:21:17.544Z,35.88
2023-05-12T06:22:17.649Z,35.86
2023-05-12T06:23:17.717Z,35.86
2023-05-12T06:24:17.792Z,35.85
2023-05-12T06:25:17.996Z,35.82
2023-05-12T06:26:17.945Z,35.84
2023-05-12T06:27:18.018Z,35.80
2023-05-12T06:28:18.094Z,35.80
2023-05-12T06:29:18.179Z,35.79
2023-05-12T06:30:18.254Z,35.79
2023-05-12T06:31:18.362Z,35.79
2023-05-12T06:32:18.499Z,35.76
2023-05-12T06:33:18.516Z,35.78
2023-05-12T06:34:18.571Z,35.75
2023-05-12T06:35:18.942Z,35.77
2023-05-12T06:36:18.708Z,35.76
2023-05-12T06:37:18.790Z,35.75
2023-05-12T06:38:18.884Z,35.76
2023-05-12T06:39:18.954Z,35.74
2023-05-12T06:40:19.056Z,35.76
2023-05-12T06:41:19.126Z,35.73
2023-05-12T06:42:19.218Z,35.73
2023-05-12T06:43:19.292Z,35.74
2023-05-12T06:44:19.371Z,35.73
2023-05-12T06:45:19.743Z,35.74
2023-05-12T06:46:19.558Z,35.74
2023-05-12T06:47:19.640Z,35.74
2023-05-12T06:48:19.687Z,35.75
2023-05-12T06:49:19.770Z,35.76
2023-05-12T06:50:25.833Z,35.76
2023-05-12T06:51:19.904Z,35.79
2023-05-12T06:52:20.004Z,35.74
2023-05-12T06:53:20.079Z,35.75
2023-05-12T06:54:20.195Z,35.76
2023-05-12T06:55:20.708Z,35.77
2023-05-12T06:56:20.309Z,35.79
2023-05-12T06:57:20.386Z,35.76
2023-05-12T06:58:20.504Z,35.75
2023-05-12T06:59:21.358Z,35.75
2023-05-12T07:00:20.627Z,35.75
2023-05-12T07:01:20.726Z,35.76
2023-05-12T07:02:20.838Z,35.77
2023-05-12T07:03:20.912Z,35.77
2023-05-12T07:04:20.998Z,35.76
2023-05-12T07:05:21.511Z,35.76
2023-05-12T07:06:21.115Z,35.75
2023-05-12T07:07:21.174Z,35.77
2023-05-12T07:08:21.260Z,35.77
2023-05-12T07:09:21.340Z,35.75
2023-05-12T07:10:21.427Z,35.75
2023-05-12T07:11:21.517Z,35.76
2023-05-12T07:12:21.577Z,35.77
2023-05-12T07:13:21.663Z,35.75
2023-05-12T07:14:21.741Z,35.78
2023-05-12T07:15:22.090Z,35.76
2023-05-12T07:16:21.938Z,35.78
2023-05-12T07:17:22.038Z,35.78
2023-05-12T07:18:22.114Z,35.78
2023-05-12T07:19:22.144Z,35.77
2023-05-12T07:20:22.249Z,35.77
2023-05-12T07:21:22.318Z,35.78
2023-05-12T07:22:22.977Z,35.77
2023-05-12T07:23:22.478Z,35.78
2023-05-12T07:24:22.567Z,35.79
2023-05-12T07:25:22.929Z,35.79
2023-05-12T07:26:22.742Z,35.81
2023-05-12T07:27:22.817Z,35.82
2023-05-12T07:28:22.893Z,35.81
2023-05-12T07:29:22.977Z,35.81
2023-05-12T07:30:23.051Z,35.82
2023-05-12T07:31:23.188Z,35.81
2023-05-12T07:32:23.198Z,35.82
2023-05-12T07:33:23.280Z,35.82
2023-05-12T07:34:23.375Z,35.82
2023-05-12T07:35:23.458Z,35.83
2023-05-12T07:36:23.534Z,35.83
2023-05-12T07:37:23.614Z,35.82
2023-05-12T07:38:23.755Z,35.83
2023-05-12T07:39:23.969Z,35.83
2023-05-12T07:40:23.858Z,35.81
2023-05-12T07:41:23.933Z,35.81
2023-05-12T07:42:24.031Z,35.80
2023-05-12T07:43:24.123Z,35.81
2023-05-12T07:44:24.206Z,35.82
2023-05-12T07:45:24.330Z,35.81
2023-05-12T07:46:24.397Z,35.81
2023-05-12T07:47:24.458Z,35.80
2023-05-12T07:48:24.532Z,35.80
2023-05-12T07:49:24.589Z,35.80
2023-05-12T07:50:24.720Z,35.80
2023-05-12T07:51:24.779Z,35.78
2023-05-12T07:52:24.850Z,35.77
2023-05-12T07:53:24.943Z,35.77
2023-05-12T07:54:25.012Z,35.77
2023-05-12T07:55:25.081Z,35.78
2023-05-12T07:56:25.200Z,35.79
2023-05-12T07:57:25.220Z,35.79
2023-05-12T07:58:25.313Z,35.78
2023-05-12T07:59:25.395Z,35.78
2023-05-12T08:00:25.497Z,35.74
2023-05-12T08:01:25.563Z,35.76
2023-05-12T08:02:25.752Z,35.77
2023-05-12T08:03:25.962Z,35.75
2023-05-12T08:04:25.902Z,35.76
2023-05-12T08:05:25.906Z,35.76
2023-05-12T08:06:25.978Z,35.76
2023-05-12T08:07:26.052Z,35.77
2023-05-12T08:08:26.122Z,35.77
2023-05-12T08:09:26.202Z,35.78
2023-05-12T08:10:26.274Z,35.76
2023-05-12T08:11:26.369Z,35.77
2023-05-12T08:12:26.437Z,35.79
2023-05-12T08:13:26.533Z,35.78
2023-05-12T08:14:26.633Z,35.78
2023-05-12T08:15:26.693Z,35.78
2023-05-12T08:16:26.758Z,35.75
2023-05-12T08:17:29.152Z,35.77
2023-05-12T08:18:27.037Z,35.77
2023-05-12T08:19:27.047Z,35.78
2023-05-12T08:20:27.129Z,35.77
2023-05-12T08:21:27.201Z,35.77
2023-05-12T08:22:27.278Z,35.77
2023-05-12T08:23:27.370Z,35.77
2023-05-12T08:24:27.460Z,35.76
2023-05-12T08:25:27.538Z,35.77
2023-05-12T08:26:27.613Z,35.77
2023-05-12T08:27:27.704Z,35.75
2023-05-12T08:28:27.777Z,35.76
2023-05-12T08:29:27.831Z,35.77
2023-05-12T08:30:27.898Z,35.78
2023-05-12T08:31:28.076Z,35.78
2023-05-12T08:32:28.103Z,35.78
2023-05-12T08:33:28.128Z,35.78
2023-05-12T08:34:28.202Z,35.77
2023-05-12T08:35:28.268Z,35.76
2023-05-12T08:36:28.372Z,35.77
2023-05-12T08:37:28.450Z,35.76
2023-05-12T08:38:28.538Z,35.77
2023-05-12T08:39:28.613Z,35.75
2023-05-12T08:40:28.685Z,35.74
2023-05-12T08:41:28.766Z,35.75
2023-05-12T08:42:28.843Z,35.76
2023-05-12T08:43:28.924Z,35.74
2023-05-12T08:44:29.060Z,35.75
2023-05-12T08:45:29.103Z,35.75
2023-05-12T08:46:29.209Z,35.74
2023-05-12T08:47:29.336Z,35.73
2023-05-12T08:48:29.411Z,35.73
2023-05-12T08:49:29.448Z,35.72
2023-05-12T08:50:29.573Z,35.72
2023-05-12T08:51:29.614Z,35.70
2023-05-12T08:52:29.703Z,35.71
2023-05-12T08:53:29.782Z,35.70
2023-05-12T08:54:29.850Z,35.68
2023-05-12T08:55:33.538Z,35.67
2023-05-12T08:57:30.209Z,35.70
2023-05-12T08:58:40.261Z,35.68
2023-05-12T08:59:30.297Z,35.70
2023-05-12T09:00:30.401Z,35.68
2023-05-12T09:01:30.460Z,35.65
2023-05-12T09:02:40.932Z,35.65
2023-05-12T09:03:30.641Z,35.70
2023-05-12T09:04:30.750Z,35.65
2023-05-12T09:05:30.783Z,35.65
2023-05-12T09:06:30.846Z,35.64
2023-05-12T09:07:30.910Z,35.60
2023-05-12T09:08:30.995Z,35.61
2023-05-12T09:09:31.085Z,35.62
2023-05-12T09:10:34.879Z,35.59
2023-05-12T09:11:31.207Z,35.64
2023-05-12T09:12:31.348Z,35.62
2023-05-12T09:13:31.385Z,35.57
2023-05-12T09:14:31.474Z,35.59
2023-05-12T09:15:31.550Z,35.61
2023-05-12T09:16:31.665Z,35.58
2023-05-12T09:17:31.726Z,35.59
2023-05-12T09:18:31.817Z,35.58
2023-05-12T09:19:31.872Z,35.57
2023-05-12T09:20:32.302Z,35.59
2023-05-12T09:21:32.026Z,35.57
2023-05-12T09:22:32.101Z,35.57
2023-05-12T09:23:32.175Z,35.58
2023-05-12T09:24:32.250Z,35.57
2023-05-12T09:25:32.361Z,35.57
2023-05-12T09:26:32.434Z,35.56
2023-05-12T09:27:32.526Z,35.54
2023-05-12T09:28:32.602Z,35.57
2023-05-12T09:29:37.318Z,35.57
2023-05-12T09:30:32.769Z,35.58
2023-05-12T09:31:32.910Z,35.53
2023-05-12T09:32:33.087Z,35.53
2023-05-12T09:33:33.005Z,35.54
2023-05-12T09:34:33.080Z,35.53
2023-05-12T09:35:33.159Z,35.54
2023-05-12T09:36:33.240Z,35.53
2023-05-12T09:37:33.283Z,35.53
2023-05-12T09:38:33.353Z,35.52
2023-05-12T09:39:33.436Z,35.52
2023-05-12T09:40:33.517Z,35.49
2023-05-12T09:41:33.609Z,35.51
2023-05-12T09:42:33.701Z,35.52
2023-05-12T09:43:34.469Z,35.49
2023-05-12T09:44:33.894Z,35.48
2023-05-12T09:45:33.952Z,35.49
2023-05-12T09:46:34.254Z,35.47
2023-05-12T09:47:34.170Z,35.45
2023-05-12T09:48:34.195Z,35.46
2023-05-12T09:49:34.267Z,35.48
2023-05-12T09:50:44.206Z,35.48
2023-05-12T09:51:34.429Z,35.49
2023-05-12T09:52:34.522Z,35.50
2023-05-12T09:53:34.606Z,35.46
2023-05-12T09:54:34.755Z,35.47
2023-05-12T09:55:34.779Z,35.48
2023-05-12T09:56:34.866Z,35.47
2023-05-12T09:57:34.966Z,35.47
2023-05-12T09:58:35.082Z,35.47
2023-05-12T09:59:35.217Z,35.46
2023-05-12T10:00:58.647Z,35.46
2023-05-12T10:01:35.348Z,35.48
2023-05-12T10:02:35.441Z,35.50
2023-05-12T10:03:35.486Z,35.47
2023-05-12T10:04:35.582Z,35.47
2023-05-12T10:05:35.651Z,35.48
2023-05-12T10:06:35.703Z,35.47
2023-05-12T10:07:35.814Z,35.45
2023-05-12T10:08:35.866Z,35.45
2023-05-12T10:09:35.943Z,35.45
2023-05-12T10:10:36.041Z,35.43
2023-05-12T10:11:36.096Z,35.46
2023-05-12T10:12:36.192Z,35.48
2023-05-12T10:13:36.283Z,35.47
2023-05-12T10:14:36.354Z,35.45
2023-05-12T10:15:36.432Z,35.44
2023-05-12T10:16:36.582Z,35.45
2023-05-12T10:17:36.618Z,35.44
2023-05-12T10:18:36.681Z,35.45
2023-05-12T10:19:36.752Z,35.41
2023-05-12T10:20:36.843Z,35.45
2023-05-12T10:21:36.920Z,35.42
2023-05-12T10:22:36.990Z,35.42
2023-05-12T10:23:38.012Z,35.42
2023-05-12T10:24:37.194Z,35.43
2023-05-12T10:25:37.265Z,35.40
2023-05-12T10:26:37.311Z,35.40
2023-05-12T10:27:37.384Z,35.43
2023-05-12T10:28:37.470Z,35.42
2023-05-12T10:29:37.598Z,35.43
2023-05-12T10:30:37.671Z,35.42
2023-05-12T10:31:37.748Z,35.40
2023-05-12T10:32:37.791Z,35.42
2023-05-12T10:33:37.869Z,35.41
2023-05-12T10:34:37.943Z,35.43
2023-05-12T10:35:38.019Z,35.43
2023-05-12T10:36:38.097Z,35.39
2023-05-12T10:37:38.191Z,35.42
2023-05-12T10:38:38.271Z,35.41
2023-05-12T10:39:38.347Z,35.40
2023-05-12T10:40:38.450Z,35.37
2023-05-12T10:41:38.499Z,35.37
2023-05-12T10:42:38.594Z,35.38
2023-05-12T10:43:38.640Z,35.39
2023-05-12T10:44:38.738Z,35.38
2023-05-12T10:45:38.789Z,35.39
2023-05-12T10:46:38.898Z,35.40
2023-05-12T10:47:38.974Z,35.39
2023-05-12T10:48:39.048Z,35.39
2023-05-12T10:49:39.106Z,35.37
2023-05-12T10:50:39.170Z,35.36
2023-05-12T10:51:39.279Z,35.36
2023-05-12T10:52:39.373Z,35.37
2023-05-12T10:53:49.817Z,35.36
2023-05-12T10:54:39.518Z,35.38
2023-05-12T10:55:39.689Z,35.35
2023-05-12T10:56:40.181Z,35.37
2023-05-12T10:57:40.155Z,35.37
2023-05-12T10:58:40.467Z,35.36
2023-05-12T10:59:40.385Z,35.35
2023-05-12T11:00:40.409Z,35.33
2023-05-12T11:01:41.174Z,35.30
2023-05-12T11:02:40.685Z,35.31
2023-05-12T11:03:41.115Z,35.34
2023-05-12T11:04:40.510Z,35.32
2023-05-12T11:05:40.550Z,35.30
2023-05-12T11:06:41.109Z,35.34
2023-05-12T11:07:41.838Z,35.34
2023-05-12T11:08:40.762Z,35.35
2023-05-12T11:09:47.981Z,35.33
2023-05-12T11:10:40.873Z,35.34
2023-05-12T11:11:41.146Z,35.33
2023-05-12T11:12:40.980Z,35.33
2023-05-12T11:13:41.063Z,35.30
2023-05-12T11:14:41.138Z,35.31
2023-05-12T11:15:41.224Z,35.30
2023-05-12T11:16:41.361Z,35.29
2023-05-12T11:17:41.501Z,35.28
2023-05-12T11:18:41.519Z,35.31
2023-05-12T11:19:41.540Z,35.31
2023-05-12T11:20:41.611Z,35.30
2023-05-12T11:21:41.696Z,35.28
2023-05-12T11:22:42.106Z,35.29
2023-05-12T11:23:41.913Z,35.29
2023-05-12T11:24:41.945Z,35.28
2023-05-12T11:25:44.166Z,35.28
2023-05-12T11:26:42.118Z,35.29
2023-05-12T11:27:42.223Z,35.28
2023-05-12T11:28:42.430Z,35.29
2023-05-12T11:29:42.449Z,35.29
2023-05-12T11:30:42.486Z,35.25
2023-05-12T11:31:42.599Z,35.25
2023-05-12T11:32:42.683Z,35.26
2023-05-12T11:33:42.775Z,35.25
2023-05-12T11:34:42.842Z,35.24
2023-05-12T11:35:42.941Z,35.24
2023-05-12T11:36:43.011Z,35.24
2023-05-12T11:37:43.094Z,35.23
2023-05-12T11:38:43.180Z,35.23
2023-05-12T11:39:43.269Z,35.23
2023-05-12T11:40:43.325Z,35.22
2023-05-12T11:41:43.421Z,35.21
2023-05-12T11:42:43.520Z,35.21
2023-05-12T11:43:43.567Z,35.20
2023-05-12T11:44:43.657Z,35.22
2023-05-12T11:45:43.797Z,35.22
2023-05-12T11:46:43.812Z,35.20
2023-05-12T11:47:43.915Z,35.19
2023-05-12T11:48:43.996Z,35.19
2023-05-12T11:49:44.089Z,35.18
2023-05-12T11:50:44.138Z,35.18
2023-05-12T11:51:44.235Z,35.18
2023-05-12T11:52:44.283Z,35.19
2023-05-12T11:53:44.348Z,35.18
2023-05-12T11:54:44.430Z,35.18
2023-05-12T11:55:44.630Z,35.17
2023-05-12T11:56:44.614Z,35.18
2023-05-12T11:57:44.685Z,35.18
2023-05-12T11:58:44.759Z,35.18
2023-05-12T11:59:44.859Z,35.18
2023-05-12T12:00:45.008Z,35.16
2023-05-12T12:01:45.008Z,35.17
2023-05-12T12:02:45.140Z,35.18
2023-05-12T12:03:45.283Z,35.18
2023-05-12T12:04:45.313Z,35.17
2023-05-12T12:05:45.392Z,35.16
2023-05-12T12:06:45.424Z,35.15
2023-05-12T12:07:45.492Z,35.16
2023-05-12T12:08:45.564Z,35.15
2023-05-12T12:09:45.642Z,35.15
2023-05-12T12:10:45.732Z,35.15
2023-05-12T12:11:45.809Z,35.15
2023-05-12T12:12:45.942Z,35.16
2023-05-12T12:13:45.992Z,35.14
2023-05-12T12:14:46.078Z,35.12
2023-05-12T12:15:46.201Z,35.11
2023-05-12T12:16:46.253Z,35.12
2023-05-12T12:17:46.336Z,35.11
2023-05-12T12:18:46.476Z,35.08
2023-05-12T12:19:46.511Z,35.07
2023-05-12T12:20:46.583Z,35.05
2023-05-12T12:21:46.666Z,35.04
2023-05-12T12:22:46.744Z,35.04
2023-05-12T12:23:51.410Z,35.05
2023-05-12T12:24:46.916Z,35.07
2023-05-12T12:25:47.028Z,35.07
2023-05-12T12:26:47.087Z,35.08
2023-05-12T12:27:47.166Z,35.09
2023-05-12T12:28:47.244Z,35.09
2023-05-12T12:29:47.326Z,35.07
2023-05-12T12:30:47.513Z,35.07
2023-05-12T12:31:47.549Z,35.09
2023-05-12T12:32:47.626Z,35.07
2023-05-12T12:33:47.645Z,35.06
2023-05-12T12:34:47.724Z,35.07
2023-05-12T12:35:47.798Z,35.06
2023-05-12T12:36:47.904Z,35.02
2023-05-12T12:37:47.956Z,35.02
2023-05-12T12:38:48.156Z,34.98
2023-05-12T12:39:48.138Z,34.99
2023-05-12T12:40:48.221Z,34.99
2023-05-12T12:41:48.329Z,34.98
2023-05-12T12:42:48.395Z,34.99
2023-05-12T12:43:48.465Z,34.99
2023-05-12T12:44:48.559Z,34.97
2023-05-12T12:45:48.619Z,34.97
2023-05-12T12:46:48.743Z,34.95
2023-05-12T12:47:48.793Z,34.93
2023-05-12T12:48:48.846Z,34.94
2023-05-12T12:49:48.922Z,34.93
2023-05-12T12:50:48.998Z,34.94
2023-05-12T12:51:49.075Z,34.93
2023-05-12T12:52:49.195Z,34.90
2023-05-12T12:53:49.266Z,34.91
2023-05-12T12:54:49.336Z,34.92
2023-05-12T12:55:49.446Z,34.93